createdAt,value
2018-08-11T00:00:28.329Z,0.90
2018-08-11T00:02:58.328Z,1.30
2018-08-11T00:05:28.282Z,1.20
2018-08-11T00:07:58.010Z,1.10
2018-08-11T00:10:27.066Z,1.60
2018-08-11T00:12:56.099Z,1.30
2018-08-11T00:15:25.103Z,0.90
2018-08-11T00:17:54.116Z,0.97
2018-08-11T00:20:26.483Z,1.17
2018-08-11T00:22:55.494Z,0.90
2018-08-11T00:25:24.430Z,1.07
2018-08-11T00:27:53.405Z,1.00
2018-08-11T00:30:22.438Z,1.00
2018-08-11T00:32:51.444Z,1.00
2018-08-11T00:35:20.432Z,0.70
2018-08-11T00:37:49.451Z,0.93
2018-08-11T00:40:19.506Z,1.07
2018-08-11T00:42:49.533Z,0.90
2018-08-11T00:45:18.904Z,1.13
2018-08-11T00:47:47.955Z,1.00
2018-08-11T00:50:25.899Z,1.10
2018-08-11T00:52:54.989Z,0.90
2018-08-11T00:55:23.955Z,0.90
2018-08-11T00:57:52.962Z,1.10
2018-08-11T01:00:21.935Z,0.97
2018-08-11T01:02:50.992Z,0.80
2018-08-11T01:05:21.068Z,0.90
2018-08-11T01:07:50.750Z,0.80
2018-08-11T01:10:19.873Z,0.93
2018-08-11T01:12:49.345Z,1.10
2018-08-11T01:15:20.149Z,1.20
2018-08-11T01:17:49.901Z,1.37
2018-08-11T01:20:19.018Z,1.00
2018-08-11T01:22:48.610Z,1.20
2018-08-11T01:25:17.547Z,1.07
2018-08-11T01:27:46.515Z,0.93
2018-08-11T01:30:17.042Z,1.00
2018-08-11T01:32:46.035Z,1.17
2018-08-11T01:35:15.009Z,1.17
2018-08-11T01:37:44.720Z,1.17
2018-08-11T01:40:14.698Z,1.10
2018-08-11T01:42:45.082Z,1.00
2018-08-11T01:45:14.842Z,0.80
2018-08-11T01:47:43.964Z,1.13
2018-08-11T01:50:14.026Z,1.20
2018-08-11T01:52:44.387Z,1.20
2018-08-11T01:55:14.812Z,1.27
2018-08-11T01:57:43.925Z,1.20
2018-08-11T02:00:14.403Z,1.10
2018-08-11T02:02:43.448Z,1.40
2018-08-11T02:05:13.190Z,1.33
2018-08-11T02:07:43.202Z,1.30
2018-08-11T02:10:18.546Z,1.10
2018-08-11T02:12:47.913Z,1.10
2018-08-11T02:15:17.142Z,1.13
2018-08-11T02:17:46.085Z,1.10
2018-08-11T02:20:16.557Z,1.10
2018-08-11T02:22:46.376Z,1.30
2018-08-11T02:25:15.378Z,0.90
2018-08-11T02:27:44.392Z,1.20
2018-08-11T02:30:15.305Z,0.90
2018-08-11T02:32:44.285Z,0.93
2018-08-11T02:35:13.894Z,1.00
2018-08-11T02:37:43.285Z,1.10
2018-08-11T02:40:13.632Z,1.17
2018-08-11T02:42:42.601Z,1.13
2018-08-11T02:45:14.614Z,0.90
2018-08-11T02:47:43.694Z,1.00
2018-08-11T02:50:13.099Z,0.90
2018-08-11T02:52:42.865Z,0.83
2018-08-11T02:55:12.057Z,1.07
2018-08-11T02:57:40.989Z,1.10
2018-08-11T03:00:11.661Z,1.30
2018-08-11T03:02:40.695Z,1.50
2018-08-11T03:05:09.694Z,1.30
2018-08-11T03:07:39.012Z,1.67
2018-08-11T03:10:09.668Z,1.50
2018-08-11T03:12:38.809Z,1.40
2018-08-11T03:15:09.267Z,1.60
2018-08-11T03:17:38.766Z,1.50
2018-08-11T03:20:10.156Z,1.67
2018-08-11T03:22:39.162Z,1.27
2018-08-11T03:25:09.362Z,1.60
2018-08-11T03:27:38.334Z,1.97
2018-08-11T03:30:07.907Z,1.60
2018-08-11T03:32:37.009Z,1.50
2018-08-11T03:35:06.545Z,1.70
2018-08-11T03:37:35.498Z,1.37
2018-08-11T03:40:05.551Z,1.60
2018-08-11T03:42:34.526Z,1.60
2018-08-11T03:45:03.513Z,1.60
2018-08-11T03:47:32.470Z,1.50
2018-08-11T03:50:01.445Z,1.73
2018-08-11T03:52:31.155Z,1.73
2018-08-11T03:55:00.186Z,2.00
2018-08-11T03:57:30.288Z,1.77
2018-08-11T04:00:00.454Z,1.67
2018-08-11T04:02:29.918Z,1.80
2018-08-11T04:04:59.453Z,1.93
2018-08-11T04:07:28.466Z,1.80
2018-08-11T04:09:57.457Z,1.60
2018-08-11T04:12:26.382Z,1.40
2018-08-11T04:14:55.368Z,1.50
2018-08-11T04:17:31.236Z,1.50
2018-08-11T04:20:00.244Z,1.43
2018-08-11T04:22:30.369Z,1.97
2018-08-11T04:24:59.412Z,1.80
2018-08-11T04:27:28.402Z,2.00
2018-08-11T04:29:57.401Z,1.97
2018-08-11T04:32:26.609Z,2.00
2018-08-11T04:34:55.967Z,2.37
2018-08-11T04:37:24.983Z,2.03
2018-08-11T04:39:53.964Z,2.03
2018-08-11T04:42:22.945Z,2.23
2018-08-11T04:44:52.062Z,2.00
2018-08-11T04:47:20.992Z,2.23
2018-08-11T04:49:49.982Z,2.80
2018-08-11T04:52:18.944Z,2.20
2018-08-11T04:54:47.908Z,2.33
2018-08-11T04:57:16.868Z,2.30
2018-08-11T04:59:45.866Z,2.27
2018-08-11T05:02:14.850Z,2.30
2018-08-11T05:04:43.845Z,2.83
2018-08-11T05:07:12.809Z,2.47
2018-08-11T05:09:41.771Z,2.30
2018-08-11T05:12:10.758Z,2.30
2018-08-11T05:14:39.706Z,2.40
2018-08-11T05:17:08.728Z,2.20
2018-08-11T05:19:37.681Z,2.60
2018-08-11T05:22:06.874Z,2.20
2018-08-11T05:24:35.808Z,2.17
2018-08-11T05:27:04.836Z,2.50
2018-08-11T05:29:33.858Z,2.20
2018-08-11T05:32:03.123Z,2.20
2018-08-11T05:34:32.070Z,2.20
2018-08-11T05:37:01.903Z,2.07
2018-08-11T05:39:32.129Z,2.13
2018-08-11T05:42:02.024Z,1.70
2018-08-11T05:44:31.005Z,1.80
2018-08-11T05:47:01.093Z,1.83
2018-08-11T05:49:31.183Z,1.73
2018-08-11T05:52:00.258Z,1.67
2018-08-11T05:54:30.369Z,2.03
2018-08-11T05:57:00.692Z,1.40
2018-08-11T05:59:30.693Z,1.37
2018-08-11T06:02:00.436Z,1.30
2018-08-11T06:04:30.505Z,1.17
2018-08-11T06:07:00.309Z,1.40
2018-08-11T06:09:30.274Z,1.23
2018-08-11T06:12:00.498Z,1.50
2018-08-11T06:14:30.273Z,1.00
2018-08-11T06:17:00.542Z,1.10
2018-08-11T06:19:30.313Z,1.53
2018-08-11T06:22:00.697Z,1.30
2018-08-11T06:24:30.425Z,1.03
2018-08-11T06:26:59.432Z,1.03
2018-08-11T06:29:28.422Z,1.10
2018-08-11T06:31:57.446Z,1.13
2018-08-11T06:34:26.456Z,1.00
2018-08-11T06:36:55.442Z,0.93
2018-08-11T06:39:24.409Z,0.80
2018-08-11T06:41:53.415Z,1.00
2018-08-11T06:44:22.373Z,0.83
2018-08-11T06:46:51.432Z,1.00
2018-08-11T06:49:20.326Z,1.00
2018-08-11T06:51:49.329Z,0.70
2018-08-11T06:54:18.289Z,0.80
2018-08-11T06:56:47.303Z,0.90
2018-08-11T06:59:16.329Z,0.70
2018-08-11T07:01:45.416Z,1.00
2018-08-11T07:04:14.345Z,0.77
2018-08-11T07:06:43.315Z,0.90
2018-08-11T07:09:12.289Z,0.93
2018-08-11T07:11:41.287Z,0.83
2018-08-11T07:14:10.329Z,0.80
2018-08-11T07:16:39.309Z,0.70
2018-08-11T07:19:08.274Z,0.63
2018-08-11T07:21:37.302Z,0.90
2018-08-11T07:24:06.272Z,0.90
2018-08-11T07:26:35.265Z,0.70
2018-08-11T07:29:04.194Z,0.70
2018-08-11T07:31:33.146Z,0.70
2018-08-11T07:34:02.073Z,0.80
2018-08-11T07:36:31.168Z,0.47
2018-08-11T07:39:01.254Z,0.70
2018-08-11T07:41:30.332Z,0.80
2018-08-11T07:44:00.314Z,1.00
2018-08-11T07:46:30.254Z,0.70
2018-08-11T07:49:00.450Z,0.83
2018-08-11T07:51:29.488Z,0.80
2018-08-11T07:53:58.452Z,0.87
2018-08-11T07:56:27.372Z,0.80
2018-08-11T07:58:56.324Z,0.80
2018-08-11T08:01:25.274Z,1.00
2018-08-11T08:03:54.405Z,1.07
2018-08-11T08:06:23.375Z,0.80
2018-08-11T08:08:52.345Z,0.97
2018-08-11T08:11:21.326Z,0.70
2018-08-11T08:13:50.330Z,0.70
2018-08-11T08:16:19.289Z,0.90
2018-08-11T08:18:48.236Z,0.87
2018-08-11T08:21:17.169Z,0.80
2018-08-11T08:23:46.225Z,1.17
2018-08-11T08:26:15.237Z,0.77
2018-08-11T08:28:44.176Z,0.90
2018-08-11T08:31:13.178Z,0.90
2018-08-11T08:33:42.309Z,1.07
2018-08-11T08:36:11.274Z,0.97
2018-08-11T08:38:40.258Z,1.00
2018-08-11T08:41:09.273Z,0.90
2018-08-11T08:43:38.314Z,0.80
2018-08-11T08:46:07.298Z,0.70
2018-08-11T08:48:36.357Z,0.80
2018-08-11T08:51:05.496Z,0.90
2018-08-11T08:53:34.456Z,0.80
2018-08-11T08:56:03.770Z,0.90
2018-08-11T08:58:32.793Z,0.90
2018-08-11T09:01:01.730Z,0.70
2018-08-11T09:03:31.768Z,0.90
2018-08-11T09:06:01.317Z,0.80
2018-08-11T09:08:30.296Z,0.80
2018-08-11T09:11:00.432Z,0.67
2018-08-11T09:13:30.488Z,0.70
2018-08-11T09:15:59.448Z,0.90
2018-08-11T09:18:28.471Z,0.60
2018-08-11T09:20:57.395Z,0.50
2018-08-11T09:23:26.362Z,0.73
2018-08-11T09:25:55.386Z,0.83
2018-08-11T09:28:24.366Z,0.93
2018-08-11T09:30:53.360Z,0.93
2018-08-11T09:33:22.345Z,0.60
2018-08-11T09:35:51.274Z,0.80
2018-08-11T09:38:20.338Z,0.80
2018-08-11T09:40:49.398Z,1.00
2018-08-11T09:43:18.349Z,0.83
2018-08-11T09:45:47.344Z,1.00
2018-08-11T09:48:16.273Z,1.10
2018-08-11T09:50:45.189Z,0.77
2018-08-11T09:53:14.242Z,0.70
2018-08-11T09:55:43.189Z,1.00
2018-08-11T09:58:12.142Z,0.80
2018-08-11T10:00:46.368Z,1.00
2018-08-11T10:03:15.313Z,1.03
2018-08-11T10:05:44.233Z,1.10
2018-08-11T10:08:13.190Z,0.80
2018-08-11T10:10:42.122Z,0.97
2018-08-11T10:13:11.095Z,1.10
2018-08-11T10:15:40.054Z,0.90
2018-08-11T10:18:09.030Z,1.10
2018-08-11T10:20:38.026Z,1.10
2018-08-11T10:23:06.969Z,0.90
2018-08-11T10:25:35.935Z,1.03
2018-08-11T10:28:04.849Z,0.80
2018-08-11T10:30:33.806Z,1.17
2018-08-11T10:33:02.746Z,0.90
2018-08-11T10:35:32.296Z,1.20
2018-08-11T10:38:01.770Z,1.00
2018-08-11T10:40:31.300Z,1.00
2018-08-11T10:43:00.252Z,0.80
2018-08-11T10:45:29.205Z,1.10
2018-08-11T10:47:58.133Z,1.00
2018-08-11T10:50:27.088Z,1.00
2018-08-11T10:52:55.982Z,0.93
2018-08-11T10:55:24.966Z,1.07
2018-08-11T10:57:53.935Z,1.20
2018-08-11T11:00:22.896Z,0.80
2018-08-11T11:02:51.879Z,1.07
2018-08-11T11:05:20.833Z,1.20
2018-08-11T11:07:49.858Z,1.00
2018-08-11T11:10:18.844Z,0.93
2018-08-11T11:12:47.864Z,1.00
2018-08-11T11:15:16.794Z,0.93
2018-08-11T11:17:45.870Z,1.00
2018-08-11T11:20:14.783Z,1.03
2018-08-11T11:22:43.727Z,1.10
2018-08-11T11:25:12.685Z,0.90
2018-08-11T11:27:41.648Z,1.00
2018-08-11T11:30:10.603Z,0.80
2018-08-11T11:32:39.552Z,0.97
2018-08-11T11:35:08.492Z,0.67
2018-08-11T11:37:37.466Z,0.87
2018-08-11T11:40:07.124Z,1.30
2018-08-11T11:42:36.072Z,0.80
2018-08-11T11:45:06.025Z,0.77
2018-08-11T11:47:35.213Z,0.90
2018-08-11T11:50:04.643Z,0.43
2018-08-11T11:52:33.683Z,0.73
2018-08-11T11:55:03.257Z,0.87
2018-08-11T11:57:32.206Z,0.50
2018-08-11T12:00:01.338Z,0.93
2018-08-11T12:02:30.304Z,0.80
2018-08-11T12:04:59.348Z,0.90
2018-08-11T12:07:28.309Z,0.87
2018-08-11T12:09:57.252Z,0.93
2018-08-11T12:12:26.168Z,0.40
2018-08-11T12:14:55.117Z,0.80
2018-08-11T12:17:24.064Z,0.90
2018-08-11T12:19:53.063Z,0.80
2018-08-11T12:22:21.993Z,0.70
2018-08-11T12:24:50.948Z,0.50
2018-08-11T12:27:19.870Z,1.00
2018-08-11T12:29:48.834Z,1.10
2018-08-11T12:32:17.786Z,0.87
2018-08-11T12:34:46.793Z,1.33
2018-08-11T12:37:15.752Z,1.00
2018-08-11T12:39:44.732Z,1.20
2018-08-11T12:42:13.667Z,0.80
2018-08-11T12:44:42.633Z,1.13
2018-08-11T12:47:11.563Z,0.90
2018-08-11T12:49:40.517Z,0.80
2018-08-11T12:52:09.464Z,0.80
2018-08-11T12:54:38.514Z,0.80
2018-08-11T12:57:07.552Z,0.80
2018-08-11T12:59:36.553Z,0.80
2018-08-11T13:02:05.493Z,0.80
2018-08-11T13:04:34.544Z,1.00
2018-08-11T13:07:04.943Z,0.63
2018-08-11T13:09:33.908Z,0.97
2018-08-11T13:12:02.930Z,0.93
2018-08-11T13:14:31.884Z,0.70
2018-08-11T13:17:00.864Z,0.77
2018-08-11T13:19:30.381Z,0.90
2018-08-11T13:21:59.384Z,0.63
2018-08-11T13:24:28.358Z,0.70
2018-08-11T13:26:57.345Z,0.80
2018-08-11T13:29:26.253Z,1.10
2018-08-11T13:31:55.205Z,0.90
2018-08-11T13:34:24.126Z,0.80
2018-08-11T13:36:53.106Z,0.90
2018-08-11T13:39:22.030Z,0.70
2018-08-11T13:41:51.005Z,0.47
2018-08-11T13:44:20.512Z,0.50
2018-08-11T13:46:49.464Z,0.60
2018-08-11T13:49:18.376Z,0.43
2018-08-11T13:51:47.365Z,0.60
2018-08-11T13:54:16.418Z,0.97
2018-08-11T13:56:45.389Z,1.60
2018-08-11T13:59:14.313Z,0.70
2018-08-11T14:01:43.249Z,0.53
2018-08-11T14:04:12.169Z,0.70
2018-08-11T14:06:41.154Z,0.75
2018-08-11T14:09:10.118Z,0.80
2018-08-11T14:11:39.130Z,0.80
2018-08-11T14:14:08.060Z,1.00
2018-08-11T14:16:37.101Z,0.70
2018-08-11T14:19:06.628Z,0.78
2018-08-11T14:21:35.605Z,0.57
2018-08-11T14:24:04.557Z,0.60
2018-08-11T14:26:33.520Z,0.60
2018-08-11T14:29:02.493Z,0.60
2018-08-11T14:31:31.575Z,0.93
2018-08-11T14:34:00.510Z,0.65
2018-08-11T14:36:29.547Z,0.53
2018-08-11T14:38:58.647Z,0.98
2018-08-11T14:41:27.694Z,0.60
2018-08-11T14:43:56.598Z,0.53
2018-08-11T14:46:25.561Z,0.80
2018-08-11T14:48:54.515Z,0.80
2018-08-11T14:51:23.479Z,1.20
2018-08-11T14:53:52.401Z,0.60
2018-08-11T14:56:21.374Z,0.75
2018-08-11T14:58:50.319Z,0.70
2018-08-11T15:01:19.318Z,0.82
2018-08-11T15:03:48.229Z,0.88
2018-08-11T15:06:17.148Z,0.78
2018-08-11T15:08:46.080Z,0.90
2018-08-11T15:11:15.025Z,0.98
2018-08-11T15:13:43.934Z,0.60
2018-08-11T15:16:12.892Z,0.70
2018-08-11T15:18:41.812Z,0.85
2018-08-11T15:21:10.796Z,0.60
2018-08-11T15:23:39.908Z,0.80
2018-08-11T15:26:08.925Z,0.90
2018-08-11T15:28:37.919Z,0.80
2018-08-11T15:31:06.898Z,0.80
2018-08-11T15:33:35.937Z,0.55
2018-08-11T15:36:04.869Z,0.75
2018-08-11T15:38:33.812Z,0.90
2018-08-11T15:41:02.785Z,1.00
2018-08-11T15:43:31.766Z,1.00
2018-08-11T15:46:00.745Z,0.70
2018-08-11T15:48:29.817Z,0.80
2018-08-11T15:50:58.789Z,0.65
2018-08-11T15:53:27.776Z,0.72
2018-08-11T15:55:56.772Z,0.50
2018-08-11T15:58:25.751Z,0.62
2018-08-11T16:00:54.673Z,0.70
2018-08-11T16:03:23.632Z,0.88
2018-08-11T16:05:52.621Z,0.70
2018-08-11T16:08:21.648Z,0.88
2018-08-11T16:10:50.585Z,0.90
2018-08-11T16:13:19.554Z,0.60
2018-08-11T16:15:48.492Z,0.55
2018-08-11T16:18:17.452Z,0.65
2018-08-11T16:20:46.425Z,0.85
2018-08-11T16:23:15.403Z,0.40
2018-08-11T16:25:44.333Z,1.00
2018-08-11T16:28:13.335Z,0.55
2018-08-11T16:30:42.280Z,0.57
2018-08-11T16:33:11.274Z,0.80
2018-08-11T16:35:40.244Z,0.70
2018-08-11T16:38:09.552Z,0.98
2018-08-11T16:40:38.535Z,0.60
2018-08-11T16:43:07.538Z,0.70
2018-08-11T16:45:36.476Z,0.90
2018-08-11T16:48:05.590Z,0.90
2018-08-11T16:50:34.628Z,0.50
2018-08-11T16:53:03.610Z,0.45
2018-08-11T16:55:32.544Z,0.37
2018-08-11T16:58:01.589Z,0.80
2018-08-11T17:00:30.577Z,0.70
2018-08-11T17:02:59.608Z,0.82
2018-08-11T17:05:28.569Z,0.70
2018-08-11T17:07:57.620Z,0.95
2018-08-11T17:10:26.536Z,0.60
2018-08-11T17:12:55.513Z,0.60
2018-08-11T17:15:24.472Z,0.60
2018-08-11T17:17:53.445Z,0.70
2018-08-11T17:20:22.384Z,0.70
2018-08-11T17:22:51.371Z,0.60
2018-08-11T17:25:20.373Z,0.80
2018-08-11T17:27:49.338Z,0.90
2018-08-11T17:30:18.289Z,0.85
2018-08-11T17:32:47.313Z,0.78
2018-08-11T17:35:16.330Z,0.78
2018-08-11T17:37:45.279Z,1.00
2018-08-11T17:40:14.317Z,0.80
2018-08-11T17:42:43.277Z,0.90
2018-08-11T17:45:12.233Z,0.70
2018-08-11T17:47:41.213Z,0.88
2018-08-11T17:50:10.323Z,0.98
2018-08-11T17:52:39.305Z,0.80
2018-08-11T17:55:08.467Z,0.90
2018-08-11T17:57:37.412Z,0.87
2018-08-11T18:00:06.750Z,1.00
2018-08-11T18:02:35.800Z,0.70
2018-08-11T18:05:05.588Z,0.70
2018-08-11T18:07:34.600Z,0.70
2018-08-11T18:10:03.929Z,0.80
2018-08-11T18:12:32.926Z,0.90
2018-08-11T18:15:01.955Z,0.80
2018-08-11T18:17:31.002Z,0.90
2018-08-11T18:20:00.113Z,1.00
2018-08-11T18:22:29.124Z,0.80
2018-08-11T18:24:58.197Z,0.90
2018-08-11T18:27:27.184Z,0.70
2018-08-11T18:29:56.163Z,0.63
2018-08-11T18:32:25.133Z,0.70
2018-08-11T18:34:54.230Z,1.00
2018-08-11T18:37:23.197Z,0.63
2018-08-11T18:39:52.182Z,0.87
2018-08-11T18:42:21.108Z,0.60
2018-08-11T18:44:50.089Z,1.03
2018-08-11T18:47:19.023Z,0.80
2018-08-11T18:49:48.091Z,0.90
2018-08-11T18:52:17.050Z,0.93
2018-08-11T18:54:46.134Z,0.80
2018-08-11T18:57:15.243Z,0.80
2018-08-11T18:59:44.210Z,0.57
2018-08-11T19:02:13.131Z,0.80
2018-08-11T19:04:42.101Z,1.10
2018-08-11T19:07:11.128Z,0.73
2018-08-11T19:09:40.092Z,0.83
2018-08-11T19:12:09.041Z,0.70
2018-08-11T19:14:38.004Z,0.90
2018-08-11T19:17:07.104Z,0.87
2018-08-11T19:19:36.104Z,0.70
2018-08-11T19:22:05.028Z,0.83
2018-08-11T19:24:33.985Z,0.70
2018-08-11T19:27:02.925Z,0.80
2018-08-11T19:29:31.980Z,0.60
2018-08-11T19:32:00.985Z,0.80
2018-08-11T19:34:29.950Z,0.90
2018-08-11T19:36:59.012Z,0.70
2018-08-11T19:39:28.095Z,0.60
2018-08-11T19:41:57.398Z,0.93
2018-08-11T19:44:26.397Z,0.97
2018-08-11T19:46:55.357Z,0.53
2018-08-11T19:49:24.387Z,0.67
2018-08-11T19:51:53.295Z,0.73
2018-08-11T19:54:22.282Z,0.93
2018-08-11T19:56:51.229Z,0.90
2018-08-11T19:59:21.101Z,0.70
2018-08-11T20:01:50.029Z,0.70
2018-08-11T20:04:18.961Z,0.70
2018-08-11T20:06:47.990Z,0.70
2018-08-11T20:09:17.776Z,0.70
2018-08-11T20:11:46.797Z,0.80
2018-08-11T20:14:15.756Z,0.90
2018-08-11T20:16:44.778Z,0.90
2018-08-11T20:19:13.850Z,0.83
2018-08-11T20:21:42.726Z,1.00
2018-08-11T20:24:11.684Z,0.80
2018-08-11T20:26:41.348Z,0.73
2018-08-11T20:29:10.344Z,0.80
2018-08-11T20:31:39.409Z,0.90
2018-08-11T20:34:08.468Z,0.50
2018-08-11T20:36:37.703Z,0.80
2018-08-11T20:39:10.865Z,0.80
2018-08-11T20:41:39.942Z,0.80
2018-08-11T20:44:08.969Z,0.73
2018-08-11T20:46:38.448Z,0.80
2018-08-11T20:49:07.614Z,0.87
2018-08-11T20:51:36.565Z,0.60
2018-08-11T20:54:05.501Z,1.00
2018-08-11T20:56:34.493Z,0.97
2018-08-11T20:59:03.581Z,1.00
2018-08-11T21:01:32.514Z,0.83
2018-08-11T21:04:01.446Z,0.60
2018-08-11T21:06:30.461Z,0.60
2018-08-11T21:08:59.383Z,0.90
2018-08-11T21:11:28.340Z,1.07
2018-08-11T21:13:57.250Z,0.83
2018-08-11T21:16:26.197Z,0.97
2018-08-11T21:18:55.255Z,0.67
2018-08-11T21:21:24.266Z,0.87
2018-08-11T21:23:53.295Z,0.80
2018-08-11T21:26:22.252Z,0.90
2018-08-11T21:28:51.167Z,0.87
2018-08-11T21:31:20.405Z,0.60
2018-08-11T21:33:49.317Z,0.80
2018-08-11T21:36:18.325Z,0.80
2018-08-11T21:38:47.250Z,0.80
2018-08-11T21:41:16.206Z,1.00
2018-08-11T21:43:45.865Z,0.80
2018-08-11T21:46:14.837Z,0.70
2018-08-11T21:48:43.778Z,0.70
2018-08-11T21:51:12.736Z,0.90
2018-08-11T21:53:41.665Z,0.87
2018-08-11T21:56:10.626Z,0.67
2018-08-11T21:58:39.533Z,0.80
2018-08-11T22:01:24.127Z,0.70
2018-08-11T22:03:54.073Z,0.67
2018-08-11T22:06:23.086Z,0.53
2018-08-11T22:08:52.013Z,0.83
2018-08-11T22:11:21.004Z,0.87
2018-08-11T22:13:49.925Z,0.90
2018-08-11T22:16:18.878Z,0.90
2018-08-11T22:18:47.813Z,1.00
2018-08-11T22:21:16.817Z,0.80
2018-08-11T22:23:45.729Z,0.90
2018-08-11T22:26:14.669Z,0.83
2018-08-11T22:28:43.581Z,0.90
2018-08-11T22:31:12.516Z,0.70
2018-08-11T22:33:41.397Z,0.70
2018-08-11T22:36:10.355Z,1.00
2018-08-11T22:38:39.304Z,1.00
2018-08-11T22:41:08.331Z,1.00
2018-08-11T22:43:37.325Z,0.90
2018-08-11T22:46:06.390Z,1.23
2018-08-11T22:48:35.345Z,0.80
2018-08-11T22:51:04.264Z,0.90
2018-08-11T22:53:33.224Z,0.80
2018-08-11T22:56:02.141Z,0.83
2018-08-11T22:58:31.099Z,0.80
2018-08-11T23:01:00.040Z,1.00
2018-08-11T23:03:29.000Z,1.00
2018-08-11T23:05:57.909Z,0.87
2018-08-11T23:08:26.917Z,0.80
2018-08-11T23:10:55.839Z,0.90
2018-08-11T23:13:24.804Z,0.70
2018-08-11T23:15:53.704Z,0.90
2018-08-11T23:18:23.018Z,0.90
2018-08-11T23:20:51.933Z,0.93
2018-08-11T23:23:20.865Z,0.90
2018-08-11T23:25:49.800Z,0.80
2018-08-11T23:28:18.767Z,1.00
2018-08-11T23:30:47.696Z,0.77
2018-08-11T23:33:16.726Z,0.80
2018-08-11T23:35:46.508Z,0.90
2018-08-11T23:38:15.526Z,0.93
2018-08-11T23:40:44.494Z,0.90
2018-08-11T23:43:13.449Z,1.00
2018-08-11T23:45:42.365Z,0.90
2018-08-11T23:48:11.354Z,0.80
2018-08-11T23:50:40.245Z,0.80
2018-08-11T23:53:09.197Z,1.07
2018-08-11T23:55:38.121Z,1.00
2018-08-11T23:58:07.172Z,1.20
